Airfield :
LOGIN :

Register | Disclaimer

   EN    FR    IT 

 










Legend :    VFR   Marginal VFR   IFR   Intensive IFR   Very Intensive IFR
Visi :
Ceiling :
>= 8 km
>= 3000ft
5 to 8 km
1000 to 3000 ft
1500m to 5 km
500 to 1000 ft
800 to 1500m
200 to 500 ft
< 800m
< 200 ft
Symbols :   Thunderstorms  Fog  Heavy snow  Heavy precipitations  Wind > 20 kt
SIGMETs :     Misc.  Thunderstorms  Icing  Turbulence  Mountain Waves  Volcanic Ashes






- Airport Elevation : 466 ft


LHPA - Pápa

CURRENT METAR :
  • 090928Z 10002KT 3000 BR FEW003 BKN083 01/01 Q1009 RMK YLO

EXPIRED METARs :
  • 090903Z 07002KT 1500 BR SCT003 BKN083 01/01 Q1009 RMK AMB
  • 090845Z 10002KT 1000 R34/P1500 BR BCFZFG BKN003 OVC083 00/00 Q1009 BECMG 3000 BR SCT003 BKN083 RMK AMB
  • 090838Z 10002KT 1000 R34/P1500 BR BCFZFG BKN003 OVC083 M00/M00 Q1009 RMK AMB
  • 090815Z 03004KT 0800 R34/P1500 FZFG BKN002 BKN083 M01/M01 Q1009 BECMG 1000 BR SCT003 RMK AMB
  • 090805Z 03004KT 0800 R34/P1500 FZFG BKN002 BKN083 M01/M01 Q1009 RMK AMB
  • 090745Z 01004KT 0700 R34/P1500 FG VV001 M01/M01 Q1009 BECMG 1000 BR BKN002 RMK RED
  • 090738Z 01002KT 0600 R34/P1500 FZFG BKN001 BKN083 M01/M01 Q1009 RMK RED
  • 090715Z 06008KT 0500 R34/1100 FZFG BKN001 BKN083 M01/M01 Q1009 BECMG 1000 BR BKN002 RMK RED
  • 090645Z 02002KT 0100 R16/0450N FZFG VV001 M02/M02 Q1009 NOSIG RMK RED

TAF TAF LHPA
Valid from the 09 at 06:00 until the 10 at 06:00 UTC


090515Z 0906/1006 VRB03KT 0600 FZFG OVC002
TEMPO 0906/0908 0150 FZFG VV001
BECMG 0908/0910 36005KT 6000 NSW SCT030 BKN060
TEMPO 0915/1001 4000 RA BKN020 OVC040
TEMPO 1000/1006 VRB02KT 0800 FG OVC003



MET'MAP, your aeronautical weather chart ! - Copyright ORBIFLY December 2007 - Disclaimer

ORBIFLY MET'MAP TEAM :

Programming & Development : Alexandra Zaïnal
Concept & original design : Baudouin d'Aumeries
Assistance for programming : Marc-Olivier Méhu
Technical & hardware support : Manuel Goepfert

Contact : metmap@orbifly.com




SOURCES & CREDITS :

   NOAA